createdAt,value
2022-08-09T00:01:52.832Z,101529.94
2022-08-09T00:04:34.410Z,101526.57
2022-08-09T00:07:10.479Z,101522.26
2022-08-09T00:09:40.041Z,101518.05
2022-08-09T00:12:22.831Z,101520.95
2022-08-09T00:15:06.372Z,101523.38
2022-08-09T00:18:04.701Z,101524.70
2022-08-09T00:20:23.138Z,101527.45
2022-08-09T00:22:51.372Z,101528.29
2022-08-09T00:25:23.178Z,101528.20
2022-08-09T00:27:51.998Z,101528.63
2022-08-09T00:30:25.124Z,101534.34
2022-08-09T00:32:54.363Z,101530.58
2022-08-09T00:35:24.174Z,101533.05
2022-08-09T00:37:52.316Z,101532.13
2022-08-09T00:40:21.972Z,101529.07
2022-08-09T00:44:14.879Z,101529.12
2022-08-09T00:45:50.415Z,101535.89
2022-08-09T00:48:21.923Z,101536.98
2022-08-09T00:50:52.398Z,101536.55
2022-08-09T00:53:24.397Z,101541.02
2022-08-09T00:56:05.280Z,101542.90
2022-08-09T00:58:37.413Z,101545.58
2022-08-09T01:01:22.257Z,101545.77
2022-08-09T01:04:19.015Z,101546.21
2022-08-09T01:07:38.051Z,101544.45
2022-08-09T01:10:28.925Z,101545.34
2022-08-09T01:13:22.195Z,101542.69
2022-08-09T01:15:54.712Z,101543.95
2022-08-09T01:18:31.396Z,101544.98
2022-08-09T01:21:45.170Z,101544.79
2022-08-09T01:24:35.240Z,101547.14
2022-08-09T01:27:08.076Z,101552.48
2022-08-09T01:29:56.176Z,101551.05
2022-08-09T01:32:33.697Z,101551.95
2022-08-09T01:35:28.968Z,101551.47
2022-08-09T01:38:07.815Z,101549.11
2022-08-09T01:40:52.536Z,101547.19
2022-08-09T01:43:50.640Z,101547.20
2022-08-09T01:46:26.761Z,101546.72
2022-08-09T01:48:59.863Z,101531.90
2022-08-09T01:51:33.457Z,101533.84
2022-08-09T02:21:25.210Z,101560.90
2022-08-09T02:24:00.205Z,101562.89
2022-08-09T02:26:37.976Z,101564.19
2022-08-09T02:29:27.236Z,101565.77
2022-08-09T02:32:01.150Z,101567.42
2022-08-09T02:34:41.476Z,101564.27
2022-08-09T02:37:24.195Z,101566.29
2022-08-09T02:40:10.670Z,101567.58
2022-08-09T02:42:42.432Z,101566.38
2022-08-09T02:45:16.232Z,101567.31
2022-08-09T02:47:58.055Z,101566.73
2022-08-09T02:50:38.534Z,101567.06
2022-08-09T02:53:26.259Z,101571.35
2022-08-09T02:55:58.742Z,101572.00
2022-08-09T02:58:32.614Z,101567.41
2022-08-09T03:01:07.877Z,101572.36
2022-08-09T03:04:16.884Z,101576.17
2022-08-09T03:06:30.713Z,101576.73
2022-08-09T03:09:00.355Z,101576.92
2022-08-09T03:12:10.791Z,101578.65
2022-08-09T03:14:18.636Z,101581.19
2022-08-09T03:16:50.011Z,101581.06
2022-08-09T03:19:52.161Z,101565.77
2022-08-09T03:22:12.142Z,101581.15
2022-08-09T03:25:06.174Z,101568.34
2022-08-09T03:27:48.807Z,101581.72
2022-08-09T03:30:30.107Z,101581.00
2022-08-09T03:33:16.983Z,101579.29
2022-08-09T03:36:15.757Z,101578.86
2022-08-09T03:38:43.484Z,101579.03
2022-08-09T03:41:15.530Z,101578.52
2022-08-09T03:43:51.850Z,101581.71
2022-08-09T03:46:34.381Z,101578.33
2022-08-09T03:49:08.757Z,101568.84
2022-08-09T03:51:56.442Z,101570.17
2022-08-09T03:54:31.172Z,101582.08
2022-08-09T03:57:04.403Z,101581.58
2022-08-09T03:59:54.811Z,101584.41
2022-08-09T04:02:32.620Z,101574.95
2022-08-09T04:05:06.746Z,101589.06
2022-08-09T04:07:52.537Z,101589.06
2022-08-09T04:10:29.273Z,101593.90
2022-08-09T04:13:03.970Z,101593.67
2022-08-09T04:15:52.392Z,101595.06
2022-08-09T04:18:21.431Z,101597.84
2022-08-09T04:20:51.234Z,101598.44
2022-08-09T04:23:24.723Z,101596.86
2022-08-09T04:25:54.799Z,101596.47
2022-08-09T04:28:33.629Z,101591.31
2022-08-09T04:31:09.817Z,101588.72
2022-08-09T04:33:52.038Z,101590.94
2022-08-09T04:36:24.451Z,101586.70
2022-08-09T04:38:54.022Z,101593.71
2022-08-09T04:41:24.316Z,101592.71
2022-08-09T04:44:06.763Z,101594.83
2022-08-09T04:46:59.089Z,101599.55
2022-08-09T04:49:52.590Z,101604.61
2022-08-09T04:52:27.322Z,101604.88
2022-08-09T04:54:57.770Z,101607.17
2022-08-09T04:57:58.970Z,101606.73
2022-08-09T05:00:16.623Z,101605.94
2022-08-09T05:02:51.900Z,101606.25
2022-08-09T05:05:31.533Z,101614.66
2022-08-09T05:08:14.015Z,101611.66
2022-08-09T05:10:44.695Z,101611.06
2022-08-09T05:13:14.251Z,101609.42
2022-08-09T05:15:52.142Z,101599.31
2022-08-09T05:18:39.320Z,101619.77
2022-08-09T05:21:22.848Z,101620.29
2022-08-09T05:24:00.620Z,101623.95
2022-08-09T05:26:36.565Z,101628.67
2022-08-09T05:29:21.483Z,101625.64
2022-08-09T05:31:56.805Z,101624.50
2022-08-09T05:34:30.815Z,101626.00
2022-08-09T05:37:05.004Z,101615.09
2022-08-09T05:39:43.831Z,101627.58
2022-08-09T05:42:17.330Z,101628.80
2022-08-09T05:47:40.810Z,101631.55
2022-08-09T05:50:39.875Z,101629.70
2022-08-09T05:53:21.710Z,101629.78
2022-08-09T05:56:01.575Z,101630.51
2022-08-09T05:58:29.636Z,101629.16
2022-08-09T06:00:58.541Z,101628.09
2022-08-09T06:03:34.849Z,101630.42
2022-08-09T06:06:12.138Z,101630.63
2022-08-09T06:08:40.314Z,101627.50
2022-08-09T06:11:16.441Z,101626.52
2022-08-09T06:13:47.534Z,101627.77
2022-08-09T06:16:16.275Z,101635.42
2022-08-09T06:18:44.365Z,101630.26
2022-08-09T06:21:12.646Z,101630.91
2022-08-09T06:23:57.192Z,101633.69
2022-08-09T06:26:29.044Z,101629.28
2022-08-09T06:29:00.525Z,101634.28
2022-08-09T06:31:40.265Z,101639.60
2022-08-09T06:34:18.992Z,101637.63
2022-08-09T06:36:47.273Z,101645.59
2022-08-09T06:39:16.797Z,101647.11
2022-08-09T06:42:07.854Z,101644.05
2022-08-09T06:44:32.859Z,101650.75
2022-08-09T06:47:01.532Z,101650.46
2022-08-09T06:50:11.382Z,101651.51
2022-08-09T06:52:18.558Z,101658.36
2022-08-09T06:54:51.459Z,101659.48
2022-08-09T06:57:25.781Z,101661.35
2022-08-09T07:00:51.796Z,101657.04
2022-08-09T07:02:59.999Z,101658.06
2022-08-09T07:06:02.398Z,101659.06
2022-08-09T07:08:16.838Z,101659.02
2022-08-09T07:10:46.777Z,101658.59
2022-08-09T07:13:27.741Z,101660.13
2022-08-09T07:16:39.152Z,101660.27
2022-08-09T07:18:47.534Z,101665.11
2022-08-09T07:21:18.782Z,101667.64
2022-08-09T07:23:57.923Z,101666.85
2022-08-09T07:26:26.592Z,101671.92
2022-08-09T07:29:09.023Z,101671.34
2022-08-09T07:31:45.485Z,101675.98
2022-08-09T07:34:20.242Z,101676.91
2022-08-09T07:36:49.992Z,101665.95
2022-08-09T07:39:20.488Z,101679.46
2022-08-09T07:42:07.165Z,101678.56
2022-08-09T07:44:50.959Z,101679.37
2022-08-09T07:47:23.464Z,101681.15
2022-08-09T07:50:08.381Z,101681.65
2022-08-09T07:52:38.503Z,101682.38
2022-08-09T07:55:08.866Z,101679.31
2022-08-09T07:57:46.809Z,101673.10
2022-08-09T08:00:20.265Z,101679.54
2022-08-09T08:03:04.691Z,101680.66
2022-08-09T08:05:54.256Z,101667.23
2022-08-09T08:09:01.539Z,101682.19
2022-08-09T08:12:09.059Z,101679.82
2022-08-09T08:13:57.726Z,101679.86
2022-08-09T08:16:31.502Z,101683.10
2022-08-09T08:19:02.898Z,101685.50
2022-08-09T08:21:32.290Z,101684.20
2022-08-09T08:24:00.914Z,101685.96
2022-08-09T08:26:55.235Z,101683.93
2022-08-09T08:29:20.373Z,101683.55
2022-08-09T08:32:03.926Z,101687.88
2022-08-09T08:34:34.901Z,101683.40
2022-08-09T08:37:05.450Z,101686.33
2022-08-09T08:39:39.201Z,101686.82
2022-08-09T08:42:14.451Z,101661.75
2022-08-09T08:44:44.745Z,101682.08
2022-08-09T08:47:16.003Z,101683.81
2022-08-09T08:49:47.916Z,101685.64
2022-08-09T08:55:08.581Z,101687.33
2022-08-09T08:57:37.918Z,101683.84
2022-08-09T09:00:16.819Z,101688.98
2022-08-09T09:02:53.505Z,101688.13
2022-08-09T09:05:33.161Z,101691.18
2022-08-09T09:08:30.121Z,101688.15
2022-08-09T09:11:03.232Z,101686.25
2022-08-09T09:13:47.318Z,101684.73
2022-08-09T09:16:31.241Z,101688.27
2022-08-09T09:19:22.537Z,101688.30
2022-08-09T09:22:17.055Z,101686.06
2022-08-09T09:26:02.450Z,101688.99
2022-08-09T09:28:06.087Z,101685.20
2022-08-09T09:30:41.208Z,101686.13
2022-08-09T09:33:17.858Z,101692.83
2022-08-09T09:36:11.799Z,101688.42
2022-08-09T09:38:50.847Z,101691.59
2022-08-09T09:41:32.581Z,101688.77
2022-08-09T09:44:12.989Z,101689.81
2022-08-09T09:46:50.858Z,101689.86
2022-08-09T09:49:31.663Z,101692.50
2022-08-09T09:52:36.604Z,101689.33
2022-08-09T09:55:16.586Z,101689.60
2022-08-09T09:58:02.278Z,101687.89
2022-08-09T10:00:33.602Z,101688.00
2022-08-09T10:03:11.434Z,101688.44
2022-08-09T10:06:04.499Z,101687.40
2022-08-09T10:08:54.827Z,101690.77
2022-08-09T10:11:59.573Z,101690.97
2022-08-09T10:14:33.628Z,101691.23
2022-08-09T10:17:38.849Z,101689.41
2022-08-09T10:20:02.116Z,101687.00
2022-08-09T10:22:36.645Z,101689.20
2022-08-09T10:25:12.419Z,101689.73
2022-08-09T10:27:56.355Z,101691.98
2022-08-09T10:34:07.986Z,101687.70
2022-08-09T10:36:09.698Z,101688.97
2022-08-09T10:38:56.383Z,101687.05
2022-08-09T10:41:25.879Z,101689.18
2022-08-09T10:44:01.298Z,101688.06
2022-08-09T10:47:18.363Z,101687.73
2022-08-09T10:50:14.961Z,101689.27
2022-08-09T10:53:10.364Z,101687.05
2022-08-09T10:55:55.356Z,101682.54
2022-08-09T10:58:35.009Z,101683.98
2022-08-09T11:03:07.316Z,101682.34
2022-08-09T11:04:19.427Z,101682.48
2022-08-09T11:07:01.110Z,101679.95
2022-08-09T11:09:38.566Z,101671.55
2022-08-09T11:12:11.597Z,101664.69
2022-08-09T11:14:44.774Z,101669.14
2022-08-09T11:17:15.095Z,101669.85
2022-08-09T11:20:11.571Z,101670.85
2022-08-09T11:22:40.571Z,101666.23
2022-08-09T11:25:14.579Z,101666.39
2022-08-09T11:28:09.165Z,101663.39
2022-08-09T11:30:47.929Z,101658.66
2022-08-09T11:33:22.255Z,101658.30
2022-08-09T11:35:53.373Z,101658.85
2022-08-09T11:38:32.580Z,101632.81
2022-08-09T11:41:37.669Z,101652.95
2022-08-09T11:44:06.722Z,101647.55
2022-08-09T11:47:03.679Z,101648.83
2022-08-09T11:49:58.289Z,101648.15
2022-08-09T11:53:58.759Z,101648.34
2022-08-09T11:56:02.195Z,101644.08
2022-08-09T11:58:33.605Z,101640.23
2022-08-09T12:01:37.575Z,101640.29
2022-08-09T12:04:05.724Z,101636.36
2022-08-09T12:06:35.548Z,101634.40
2022-08-09T12:09:19.150Z,101632.80
2022-08-09T12:12:03.261Z,101633.19
2022-08-09T12:15:04.126Z,101629.12
2022-08-09T12:17:34.035Z,101630.23
2022-08-09T12:20:16.749Z,101624.70
2022-08-09T12:22:56.646Z,101624.31
2022-08-09T12:25:36.977Z,101625.42
2022-08-09T12:29:14.241Z,101625.98
2022-08-09T12:31:59.244Z,101625.46
2022-08-09T12:34:15.105Z,101618.03
2022-08-09T12:36:58.912Z,101618.39
2022-08-09T12:39:42.102Z,101612.09
2022-08-09T12:42:26.164Z,101607.34
2022-08-09T12:44:56.341Z,101607.86
2022-08-09T12:47:28.536Z,101602.76
2022-08-09T12:50:17.432Z,101599.42
2022-08-09T12:53:08.442Z,101599.56
2022-08-09T12:56:15.384Z,101601.69
2022-08-09T12:58:28.099Z,101594.23
2022-08-09T13:00:57.701Z,101589.88
2022-08-09T13:03:57.108Z,101590.56
2022-08-09T13:06:34.870Z,101584.77
2022-08-09T13:09:06.183Z,101583.20
2022-08-09T13:11:42.378Z,101578.12
2022-08-09T13:14:42.654Z,101582.52
2022-08-09T13:17:03.980Z,101579.31
2022-08-09T13:20:09.445Z,101575.20
2022-08-09T13:22:45.712Z,101569.62
2022-08-09T13:25:15.166Z,101574.04
2022-08-09T13:27:48.709Z,101569.96
2022-08-09T13:30:50.155Z,101571.73
2022-08-09T13:33:52.923Z,101569.86
2022-08-09T13:36:38.769Z,101568.09
2022-08-09T13:39:08.217Z,101566.98
2022-08-09T13:41:57.741Z,101563.27
2022-08-09T13:44:28.862Z,101569.33
2022-08-09T13:47:29.091Z,101564.38
2022-08-09T13:49:57.158Z,101562.29
2022-08-09T13:55:17.747Z,101554.77
2022-08-09T13:57:56.252Z,101542.67
2022-08-09T14:00:28.837Z,101554.75
2022-08-09T14:03:57.917Z,101553.66
2022-08-09T14:05:59.644Z,101538.96
2022-08-09T14:08:31.604Z,101547.20
2022-08-09T14:11:09.802Z,101545.13
2022-08-09T14:14:23.033Z,101550.02
2022-08-09T14:16:32.325Z,101551.59
2022-08-09T14:19:03.005Z,101548.09
2022-08-09T14:21:31.823Z,101548.17
2022-08-09T14:24:05.717Z,101547.17
2022-08-09T14:26:38.726Z,101551.02
2022-08-09T14:29:25.601Z,101535.95
2022-08-09T14:31:58.883Z,101547.88
2022-08-09T14:34:41.048Z,101549.05
2022-08-09T14:37:10.219Z,101548.60
2022-08-09T14:39:46.725Z,101545.44
2022-08-09T14:42:30.469Z,101548.46
2022-08-09T14:46:39.171Z,101551.54
2022-08-09T14:47:58.102Z,101521.79
2022-08-09T14:50:30.894Z,101545.77
2022-08-09T14:53:10.972Z,101534.23
2022-08-09T14:55:50.217Z,101548.02
2022-08-09T14:58:19.729Z,101545.95
2022-08-09T15:00:50.906Z,101542.52
2022-08-09T15:03:21.023Z,101543.20
2022-08-09T15:05:51.264Z,101543.92
2022-08-09T15:08:25.045Z,101537.80
2022-08-09T15:11:00.268Z,101536.77
2022-08-09T15:13:56.511Z,101535.05
2022-08-09T15:16:18.340Z,101529.41
2022-08-09T15:18:49.456Z,101540.94
2022-08-09T15:21:58.456Z,101539.77
2022-08-09T15:24:12.970Z,101539.80
2022-08-09T15:26:46.492Z,101538.14
2022-08-09T15:30:48.861Z,101539.15
2022-08-09T15:32:05.177Z,101545.14
2022-08-09T15:34:54.048Z,101540.17
2022-08-09T15:37:56.682Z,101542.98
2022-08-09T15:40:32.271Z,101543.55
2022-08-09T15:43:01.806Z,101545.73
2022-08-09T15:45:52.068Z,101546.64
2022-08-09T15:48:29.192Z,101533.94
2022-08-09T15:51:02.705Z,101546.13
2022-08-09T15:54:03.928Z,101550.86
2022-08-09T15:56:38.041Z,101551.05
2022-08-09T15:59:05.910Z,101551.70
2022-08-09T16:01:35.761Z,101551.92
2022-08-09T16:04:04.218Z,101552.94
2022-08-09T16:06:35.147Z,101552.52
2022-08-09T16:09:10.229Z,101550.23
2022-08-09T16:11:38.302Z,101550.84
2022-08-09T16:14:08.954Z,101553.56
2022-08-09T16:16:41.973Z,101548.70
2022-08-09T16:19:13.929Z,101551.36
2022-08-09T16:21:48.543Z,101555.70
2022-08-09T16:24:32.919Z,101554.05
2022-08-09T16:27:05.035Z,101554.65
2022-08-09T16:29:37.050Z,101555.78
2022-08-09T16:32:19.328Z,101557.29
2022-08-09T16:34:58.175Z,101561.50
2022-08-09T16:37:55.574Z,101559.55
2022-08-09T16:40:29.768Z,101559.42
2022-08-09T16:43:06.300Z,101562.48
2022-08-09T16:45:34.354Z,101562.66
2022-08-09T16:48:41.092Z,101562.49
2022-08-09T16:50:59.723Z,101559.91
2022-08-09T16:53:37.501Z,101562.38
2022-08-09T16:56:10.449Z,101562.41
2022-08-09T16:58:49.711Z,101561.66
2022-08-09T17:01:19.489Z,101564.89
2022-08-09T17:03:53.759Z,101570.75
2022-08-09T17:06:29.301Z,101566.10
2022-08-09T17:09:44.555Z,101569.38
2022-08-09T17:11:51.422Z,101573.36
2022-08-09T17:14:39.442Z,101574.09
2022-08-09T17:17:26.651Z,101576.50
2022-08-09T17:20:28.139Z,101577.65
2022-08-09T17:22:52.528Z,101577.94
2022-08-09T17:25:22.176Z,101578.50
2022-08-09T17:27:54.503Z,101577.08
2022-08-09T17:30:28.088Z,101580.39
2022-08-09T17:33:05.566Z,101578.98
2022-08-09T17:36:00.847Z,101576.74
2022-08-09T17:38:34.257Z,101580.48
2022-08-09T17:41:10.025Z,101578.80
2022-08-09T17:43:38.710Z,101586.00
2022-08-09T17:46:09.105Z,101587.50
2022-08-09T17:48:40.403Z,101578.45
2022-08-09T17:51:18.380Z,101583.05
2022-08-09T17:53:53.308Z,101571.52
2022-08-09T17:56:35.496Z,101583.77
2022-08-09T17:59:08.860Z,101579.77
2022-08-09T18:02:03.654Z,101585.47
2022-08-09T18:04:25.894Z,101585.82
2022-08-09T18:06:55.187Z,101585.66
2022-08-09T18:09:40.282Z,101586.30
2022-08-09T18:12:20.204Z,101589.59
2022-08-09T18:14:53.816Z,101592.83
2022-08-09T18:18:02.304Z,101598.42
2022-08-09T18:20:56.590Z,101598.02
2022-08-09T18:23:07.179Z,101600.77
2022-08-09T18:25:52.868Z,101602.73
2022-08-09T18:31:55.111Z,101611.31
2022-08-09T18:34:34.593Z,101614.79
2022-08-09T18:37:47.312Z,101613.86
2022-08-09T18:40:08.142Z,101617.96
2022-08-09T18:42:37.933Z,101616.43
2022-08-09T18:46:45.038Z,101618.36
2022-08-09T18:47:59.622Z,101618.73
2022-08-09T18:50:33.670Z,101619.08
2022-08-09T18:53:01.976Z,101619.34
2022-08-09T18:55:56.407Z,101615.73
2022-08-09T18:58:31.961Z,101622.54
2022-08-09T19:01:01.325Z,101619.66
2022-08-09T19:03:30.660Z,101622.15
2022-08-09T19:06:18.846Z,101623.48
2022-08-09T19:08:54.865Z,101623.56
2022-08-09T19:11:37.348Z,101622.89
2022-08-09T19:14:09.573Z,101624.09
2022-08-09T19:16:38.707Z,101627.24
2022-08-09T19:19:25.042Z,101630.44
2022-08-09T19:22:04.554Z,101628.80
2022-08-09T19:25:07.644Z,101628.11
2022-08-09T19:27:28.386Z,101629.48
2022-08-09T19:30:23.075Z,101633.20
2022-08-09T19:32:53.774Z,101635.17
2022-08-09T19:35:26.565Z,101633.70
2022-08-09T19:37:57.727Z,101633.80
2022-08-09T19:40:34.326Z,101631.35
2022-08-09T19:43:10.265Z,101628.92
2022-08-09T19:45:45.025Z,101633.60
2022-08-09T19:48:15.446Z,101627.63
2022-08-09T19:51:04.021Z,101644.33
2022-08-09T19:53:37.099Z,101644.55
2022-08-09T19:56:16.003Z,101629.63
2022-08-09T19:58:56.493Z,101647.91
2022-08-09T20:02:03.255Z,101628.08
2022-08-09T20:04:36.346Z,101646.69
2022-08-09T20:07:08.326Z,101643.29
2022-08-09T20:09:45.223Z,101642.48
2022-08-09T20:12:37.476Z,101626.40
2022-08-09T20:16:33.522Z,101636.14
2022-08-09T20:18:04.205Z,101637.27
2022-08-09T20:20:38.604Z,101638.34
2022-08-09T20:23:07.652Z,101635.65
2022-08-09T20:25:49.512Z,101638.38
2022-08-09T20:28:27.907Z,101640.66
2022-08-09T20:31:05.599Z,101639.45
2022-08-09T20:33:44.020Z,101636.29
2022-08-09T20:36:13.121Z,101638.30
2022-08-09T20:39:28.059Z,101637.33
2022-08-09T20:41:39.836Z,101639.95
2022-08-09T20:44:10.492Z,101639.66
2022-08-09T20:46:42.957Z,101639.70
2022-08-09T20:49:15.763Z,101639.02
2022-08-09T20:51:50.381Z,101636.26
2022-08-09T20:54:21.450Z,101633.21
2022-08-09T20:56:53.602Z,101636.05
2022-08-09T20:59:50.143Z,101641.21
2022-08-09T21:02:17.526Z,101622.23
2022-08-09T21:05:54.869Z,101640.48
2022-08-09T21:07:38.802Z,101638.01
2022-08-09T21:10:10.891Z,101639.02
2022-08-09T21:12:39.673Z,101639.25
2022-08-09T21:15:12.384Z,101641.88
2022-08-09T21:18:25.553Z,101642.83
2022-08-09T21:20:31.217Z,101630.66
2022-08-09T21:23:00.955Z,101646.91
2022-08-09T21:25:55.318Z,101651.72
2022-08-09T21:28:34.872Z,101655.33
2022-08-09T21:31:16.830Z,101655.51
2022-08-09T21:33:50.568Z,101655.34
2022-08-09T21:36:28.782Z,101654.27
2022-08-09T21:39:17.159Z,101650.29
2022-08-09T21:42:03.631Z,101655.89
2022-08-09T21:44:38.230Z,101652.01
2022-08-09T21:47:11.544Z,101657.98
2022-08-09T21:49:48.331Z,101654.12
2022-08-09T21:52:20.564Z,101650.34
2022-08-09T21:54:59.252Z,101653.88
2022-08-09T21:57:59.674Z,101651.89
2022-08-09T22:00:34.534Z,101647.13
2022-08-09T22:03:19.665Z,101649.58
2022-08-09T22:05:55.180Z,101650.02
2022-08-09T22:08:26.125Z,101649.27
2022-08-09T22:11:50.259Z,101637.36
2022-08-09T22:13:44.895Z,101652.16
2022-08-09T22:16:13.128Z,101648.69
2022-08-09T22:18:53.180Z,101648.34
2022-08-09T22:21:50.032Z,101636.91
2022-08-09T22:24:16.890Z,101648.13
2022-08-09T22:26:51.683Z,101647.10
2022-08-09T22:29:28.901Z,101645.17
2022-08-09T22:32:02.716Z,101645.00
2022-08-09T22:34:30.587Z,101647.16
2022-08-09T22:36:59.582Z,101645.76
2022-08-09T22:39:55.951Z,101644.73
2022-08-09T22:42:21.954Z,101644.59
2022-08-09T22:48:04.735Z,101642.71
2022-08-09T22:48:13.939Z,101640.39
2022-08-09T22:50:32.293Z,101635.59
2022-08-09T22:53:03.850Z,101639.04
2022-08-09T22:56:06.395Z,101639.51
2022-08-09T22:58:32.413Z,101638.46
2022-08-09T23:01:06.099Z,101640.77
2022-08-09T23:04:03.554Z,101641.36
2022-08-09T23:06:34.891Z,101641.07
2022-08-09T23:09:06.453Z,101638.95
2022-08-09T23:11:34.870Z,101639.42
2022-08-09T23:14:03.793Z,101641.46
2022-08-09T23:16:32.220Z,101639.10
2022-08-09T23:19:01.074Z,101637.75
2022-08-09T23:21:33.628Z,101636.59
2022-08-09T23:24:05.995Z,101641.61
2022-08-09T23:26:39.203Z,101643.41
2022-08-09T23:29:11.773Z,101642.90
2022-08-09T23:31:40.985Z,101649.20
2022-08-09T23:34:09.609Z,101647.42
2022-08-09T23:36:37.803Z,101648.34
2022-08-09T23:39:07.846Z,101640.59
2022-08-09T23:41:36.663Z,101643.77
2022-08-09T23:44:05.008Z,101643.81
2022-08-09T23:46:33.534Z,101643.78
2022-08-09T23:49:02.155Z,101641.92
2022-08-09T23:51:30.190Z,101643.38
2022-08-09T23:54:02.435Z,101643.55
2022-08-09T23:56:52.422Z,101641.05
2022-08-09T23:59:24.473Z,101645.20
